OIMB  Birjand Airport

Add Bookmark

Birjand, Iran

Status
Operational
Latitude Longitude
32° 53' 53" N 59° 15' 57" E
32.898056 59.266111
Local (DST + 5) UTC (GMT + 4)
Dec 21, 2014 04:16 Dec 21, 2014 12:46
Sunrise-Sunset Local UTC
Begin Civil Twilight 06:02 02:32
Sunrise 06:30 03:00
Sunset 04:31 13:01
End Civil Twilight 04:59 13:29

Current Weather

METAR Observed VFR
OIMB 211200Z 29014KT 9999 FEW040 SCT100 14/M06 Q1012 Sun, Dec 21, 2014 @ 12:00 UTC
(46 Minutes ago)
Visual Flight Rules
Wind Visibility Clouds Conditions
290° at 14 knots (26 kph) 10 km or more
  • Few at 4,000' AGL
  • Scattered at 10,000' AGL
  • No significant weather
Temperatures Readings Precipitation
Current Temp 14°C (57°F)
Dewpoint -6°C (21°F)
Humidity 25%
Altimeter 29.88"Hg
Sea Level Pressure 1012mb
Field Elevation 4891.73'
None Recorded

Additional weather within a 185.2km radius of OIMB

Map ICAO Location
OIMD 170.2km N (342°)

24 Hour Weather History

Loading
-

24 Hour Weather Graphs

Loading
-

CheckWX.com is intended as a tool to help pilots better visualize weather data. It is not intended as a substitute for an official weather briefing obtained from a Flight Service Station. CheckWX.com does not meet the FAA requirements for an official pre-flight weather briefing. Therefore, it's important that pilots still call and obtain an official FSS pre-flight weather briefing.